createdAt,value
2019-05-02T00:00:35.351Z,101.30
2019-05-02T00:03:05.769Z,104.37
2019-05-02T00:05:35.739Z,111.97
2019-05-02T00:08:05.122Z,106.70
2019-05-02T00:10:38.225Z,108.63
2019-05-02T00:13:08.489Z,103.30
2019-05-02T00:15:39.105Z,102.10
2019-05-02T00:18:09.530Z,116.13
2019-05-02T00:20:41.629Z,104.47
2019-05-02T00:23:12.713Z,96.23
2019-05-02T00:25:47.315Z,112.27
2019-05-02T00:28:15.801Z,108.47
2019-05-02T00:30:45.535Z,114.60
2019-05-02T00:33:15.075Z,108.47
2019-05-02T00:35:46.233Z,110.27
2019-05-02T00:38:15.538Z,99.23
2019-05-02T00:40:47.496Z,101.27
2019-05-02T00:43:16.881Z,96.73
2019-05-02T00:45:46.614Z,103.93
2019-05-02T00:48:23.125Z,96.83
2019-05-02T00:50:52.991Z,102.37
2019-05-02T00:53:22.382Z,92.13
2019-05-02T00:55:51.740Z,93.63
2019-05-02T00:58:21.047Z,86.53
2019-05-02T01:00:53.126Z,89.60
2019-05-02T01:03:22.841Z,101.53
2019-05-02T01:05:52.151Z,103.37
2019-05-02T01:08:21.467Z,88.43
2019-05-02T01:10:52.189Z,104.17
2019-05-02T01:13:21.942Z,99.03
2019-05-02T01:15:51.283Z,93.83
2019-05-02T01:18:22.288Z,104.07
2019-05-02T01:20:58.173Z,99.90
2019-05-02T01:23:27.736Z,91.40
2019-05-02T01:25:57.462Z,101.03
2019-05-02T01:28:31.111Z,103.07
2019-05-02T01:31:05.099Z,102.93
2019-05-02T01:33:44.973Z,102.77
2019-05-02T01:36:18.449Z,99.20
2019-05-02T01:38:49.705Z,100.43
2019-05-02T01:41:19.063Z,97.97
2019-05-02T01:43:48.422Z,104.83
2019-05-02T01:46:22.213Z,104.60
2019-05-02T01:48:48.732Z,112.60
2019-05-02T01:51:18.039Z,113.00
2019-05-02T01:53:47.443Z,105.00
2019-05-02T01:56:17.013Z,108.17
2019-05-02T01:58:46.406Z,116.60
2019-05-02T02:01:20.893Z,115.90
2019-05-02T02:03:49.659Z,120.73
2019-05-02T02:06:19.179Z,119.60
2019-05-02T02:08:48.585Z,109.93
2019-05-02T02:11:18.347Z,114.63
2019-05-02T02:13:48.291Z,107.37
2019-05-02T02:16:17.869Z,108.47
2019-05-02T02:18:51.991Z,102.27
2019-05-02T02:21:25.518Z,94.27
2019-05-02T02:24:02.157Z,110.33
2019-05-02T02:26:31.453Z,114.77
2019-05-02T02:29:07.702Z,109.63
2019-05-02T02:31:39.792Z,96.97
2019-05-02T02:34:11.187Z,101.43
2019-05-02T02:36:40.573Z,118.60
2019-05-02T02:39:14.368Z,119.77
2019-05-02T02:41:45.442Z,119.83
2019-05-02T02:44:16.356Z,115.90
2019-05-02T02:46:48.192Z,126.77
2019-05-02T02:49:24.180Z,116.57
2019-05-02T02:51:51.532Z,113.37
2019-05-02T02:54:21.052Z,126.20
2019-05-02T02:56:52.982Z,125.87
2019-05-02T02:59:26.141Z,108.33
2019-05-02T03:01:53.360Z,110.23
2019-05-02T03:04:22.688Z,104.50
2019-05-02T03:06:54.979Z,106.07
2019-05-02T03:09:26.813Z,107.60
2019-05-02T03:12:12.988Z,100.60
2019-05-02T03:14:47.095Z,103.43
2019-05-02T03:17:20.572Z,111.17
2019-05-02T03:19:46.234Z,98.80
2019-05-02T03:22:15.596Z,107.43
2019-05-02T03:24:46.749Z,109.43
2019-05-02T03:27:16.634Z,104.50
2019-05-02T03:29:46.015Z,114.07
2019-05-02T03:32:31.428Z,107.47
2019-05-02T03:34:52.812Z,122.20
2019-05-02T03:37:18.599Z,114.33
2019-05-02T03:39:56.537Z,104.90
2019-05-02T03:42:19.930Z,108.87
2019-05-02T03:44:55.782Z,118.90
2019-05-02T03:47:20.896Z,120.23
2019-05-02T03:49:52.335Z,128.10
2019-05-02T03:52:22.025Z,114.93
2019-05-02T03:54:54.565Z,109.07
2019-05-02T03:57:32.404Z,111.83
2019-05-02T03:59:55.158Z,111.00
2019-05-02T04:02:24.909Z,108.10
2019-05-02T04:05:00.005Z,116.03
2019-05-02T04:07:26.745Z,103.53
2019-05-02T04:09:57.691Z,121.40
2019-05-02T04:12:27.129Z,109.07
2019-05-02T04:14:57.481Z,115.93
2019-05-02T04:17:35.283Z,112.27
2019-05-02T04:20:09.668Z,110.10
2019-05-02T04:22:36.276Z,111.77
2019-05-02T04:25:06.682Z,108.63
2019-05-02T04:27:38.414Z,103.90
2019-05-02T04:30:11.400Z,121.37
2019-05-02T04:32:42.787Z,117.03
2019-05-02T04:35:10.003Z,119.50
2019-05-02T04:37:41.180Z,104.73
2019-05-02T04:40:12.303Z,110.40
2019-05-02T04:42:42.114Z,112.80
2019-05-02T04:45:26.393Z,120.50
2019-05-02T04:47:57.429Z,113.00
2019-05-02T04:50:18.564Z,114.40
2019-05-02T04:52:53.900Z,111.00
2019-05-02T04:55:28.179Z,105.37
2019-05-02T04:57:52.318Z,112.87
2019-05-02T05:00:29.049Z,120.53
2019-05-02T05:02:58.482Z,123.57
2019-05-02T05:05:31.029Z,112.13
2019-05-02T05:07:58.894Z,119.53
2019-05-02T05:10:40.212Z,101.13
2019-05-02T05:13:01.843Z,113.83
2019-05-02T05:15:40.155Z,105.33
2019-05-02T05:18:04.541Z,113.33
2019-05-02T05:20:33.703Z,113.47
2019-05-02T05:23:05.747Z,116.33
2019-05-02T05:25:37.954Z,115.37
2019-05-02T05:28:11.038Z,111.57
2019-05-02T05:30:45.421Z,111.30
2019-05-02T05:33:11.388Z,113.47
2019-05-02T05:35:43.355Z,106.73
2019-05-02T05:38:12.082Z,106.97
2019-05-02T05:40:41.514Z,116.70
2019-05-02T05:43:15.441Z,115.13
2019-05-02T05:45:53.418Z,114.40
2019-05-02T05:48:15.831Z,110.10
2019-05-02T05:50:45.148Z,115.23
2019-05-02T05:53:17.190Z,108.20
2019-05-02T05:55:47.231Z,109.60
2019-05-02T05:58:18.614Z,100.63
2019-05-02T06:00:53.691Z,110.97
2019-05-02T06:03:18.426Z,104.77
2019-05-02T06:05:47.828Z,103.03
2019-05-02T06:08:18.448Z,104.83
2019-05-02T06:10:48.364Z,107.27
2019-05-02T06:13:17.771Z,100.03
2019-05-02T06:15:47.146Z,104.90
2019-05-02T06:18:16.460Z,103.30
2019-05-02T06:20:45.820Z,99.30
2019-05-02T06:23:15.204Z,98.93
2019-05-02T06:25:44.507Z,100.73
2019-05-02T06:28:13.903Z,94.30
2019-05-02T06:30:43.430Z,95.97
2019-05-02T06:33:12.845Z,106.70
2019-05-02T06:35:42.256Z,100.03
2019-05-02T06:38:11.634Z,107.63
2019-05-02T06:40:44.605Z,108.40
2019-05-02T06:43:12.149Z,111.33
2019-05-02T06:45:41.635Z,100.33
2019-05-02T06:48:17.176Z,108.83
2019-05-02T06:50:42.070Z,96.10
2019-05-02T06:53:11.616Z,106.10
2019-05-02T06:55:40.996Z,104.10
2019-05-02T06:58:10.422Z,102.23
2019-05-02T07:00:56.075Z,109.50
2019-05-02T07:03:11.674Z,102.37
2019-05-02T07:05:43.794Z,104.77
2019-05-02T07:08:14.251Z,98.77
2019-05-02T07:10:45.072Z,101.30
2019-05-02T07:13:15.247Z,96.63
2019-05-02T07:15:52.469Z,92.47
2019-05-02T07:18:29.334Z,97.40
2019-05-02T07:20:58.662Z,102.20
2019-05-02T07:23:27.960Z,94.10
2019-05-02T07:26:00.143Z,93.20
2019-05-02T07:28:29.524Z,87.20
2019-05-02T07:30:59.362Z,90.97
2019-05-02T07:33:32.449Z,90.83
2019-05-02T07:36:00.261Z,93.37
2019-05-02T07:38:30.879Z,88.40
2019-05-02T07:41:00.164Z,86.97
2019-05-02T07:43:29.524Z,79.53
2019-05-02T07:46:01.602Z,78.30
2019-05-02T07:48:30.900Z,82.00
2019-05-02T07:51:00.778Z,81.47
2019-05-02T07:53:31.831Z,76.37
2019-05-02T07:56:04.873Z,76.53
2019-05-02T07:58:38.438Z,78.53
2019-05-02T08:01:08.152Z,84.20
2019-05-02T08:03:38.876Z,73.37
2019-05-02T08:06:08.322Z,72.80
2019-05-02T08:08:37.619Z,77.57
2019-05-02T08:11:07.264Z,74.00
2019-05-02T08:13:36.608Z,72.53
2019-05-02T08:16:06.097Z,76.37
2019-05-02T08:18:38.456Z,77.63
2019-05-02T08:21:07.932Z,83.10
2019-05-02T08:23:37.356Z,87.47
2019-05-02T08:26:07.830Z,84.73
2019-05-02T08:28:38.852Z,83.63
2019-05-02T08:31:08.334Z,76.07
2019-05-02T08:33:37.753Z,70.47
2019-05-02T08:36:10.004Z,66.23
2019-05-02T08:38:39.405Z,71.40
2019-05-02T08:41:08.825Z,68.43
2019-05-02T08:43:40.306Z,67.80
2019-05-02T08:46:14.001Z,64.60
2019-05-02T08:48:42.007Z,69.23
2019-05-02T08:51:11.416Z,68.23
2019-05-02T08:53:40.807Z,64.23
2019-05-02T08:56:10.090Z,68.60
2019-05-02T08:58:39.405Z,66.83
2019-05-02T09:01:09.147Z,58.03
2019-05-02T09:03:54.856Z,59.03
2019-05-02T09:06:10.818Z,55.53
2019-05-02T09:08:46.143Z,64.63
2019-05-02T09:11:15.785Z,58.63
2019-05-02T09:13:46.072Z,52.73
2019-05-02T09:16:15.545Z,49.27
2019-05-02T09:18:50.983Z,45.10
2019-05-02T09:21:16.098Z,47.30
2019-05-02T09:23:45.578Z,47.77
2019-05-02T09:26:14.962Z,48.60
2019-05-02T09:28:44.365Z,46.77
2019-05-02T09:31:15.694Z,55.77
2019-05-02T09:33:46.871Z,54.30
2019-05-02T09:36:16.158Z,57.47
2019-05-02T09:38:48.726Z,54.77
2019-05-02T09:41:19.331Z,58.67
2019-05-02T09:43:47.662Z,59.70
2019-05-02T09:46:17.066Z,61.63
2019-05-02T09:48:46.452Z,62.33
2019-05-02T09:51:17.522Z,68.23
2019-05-02T09:53:46.979Z,67.17
2019-05-02T09:56:16.278Z,59.87
2019-05-02T09:58:49.022Z,69.33
2019-05-02T10:01:18.883Z,62.57
2019-05-02T10:03:48.300Z,67.77
2019-05-02T10:06:18.307Z,67.87
2019-05-02T10:08:47.796Z,68.17
2019-05-02T10:11:21.731Z,74.87
2019-05-02T10:13:48.198Z,71.40
2019-05-02T10:16:23.499Z,81.00
2019-05-02T10:18:52.506Z,74.00
2019-05-02T10:21:23.321Z,94.63
2019-05-02T10:23:59.092Z,88.53
2019-05-02T10:26:27.234Z,87.63
2019-05-02T10:28:56.647Z,88.27
2019-05-02T10:31:35.728Z,95.20
2019-05-02T10:34:02.237Z,94.53
2019-05-02T10:36:32.872Z,91.93
2019-05-02T10:39:06.604Z,97.93
2019-05-02T10:41:39.336Z,98.90
2019-05-02T10:44:06.922Z,100.37
2019-05-02T10:46:46.832Z,86.87
2019-05-02T10:49:22.528Z,91.37
2019-05-02T10:51:54.147Z,101.10
2019-05-02T10:54:27.865Z,92.33
2019-05-02T10:56:55.245Z,96.00
2019-05-02T10:59:26.137Z,102.40
2019-05-02T11:01:57.067Z,104.17
2019-05-02T11:04:29.411Z,104.13
2019-05-02T11:06:58.977Z,103.20
2019-05-02T11:09:31.900Z,100.53
2019-05-02T11:12:03.007Z,104.33
2019-05-02T11:14:51.674Z,109.00
2019-05-02T11:17:32.325Z,110.30
2019-05-02T11:20:03.515Z,106.33
2019-05-02T11:22:32.974Z,108.60
2019-05-02T11:25:02.331Z,107.03
2019-05-02T11:27:32.879Z,117.47
2019-05-02T11:30:02.833Z,104.40
2019-05-02T11:32:32.743Z,103.90
2019-05-02T11:35:02.998Z,109.10
2019-05-02T11:37:32.948Z,99.87
2019-05-02T11:40:05.888Z,103.40
2019-05-02T11:42:33.547Z,109.67
2019-05-02T11:45:02.914Z,105.33
2019-05-02T11:47:32.925Z,102.57
2019-05-02T11:50:02.580Z,102.03
2019-05-02T11:52:37.186Z,103.80
2019-05-02T11:55:04.392Z,100.17
2019-05-02T11:57:33.849Z,99.10
2019-05-02T12:00:05.171Z,96.23
2019-05-02T12:02:36.427Z,96.43
2019-05-02T12:05:08.203Z,92.00
2019-05-02T12:07:37.622Z,93.47
2019-05-02T12:10:07.837Z,100.30
2019-05-02T12:12:37.232Z,88.60
2019-05-02T12:15:08.963Z,85.77
2019-05-02T12:17:38.323Z,91.67
2019-05-02T12:20:07.915Z,88.40
2019-05-02T12:22:37.326Z,90.47
2019-05-02T12:25:06.827Z,87.03
2019-05-02T12:27:36.266Z,91.90
2019-05-02T12:30:06.559Z,84.73
2019-05-02T12:32:35.927Z,85.23
2019-05-02T12:35:05.797Z,97.70
2019-05-02T12:37:36.675Z,99.73
2019-05-02T12:40:06.690Z,94.57
2019-05-02T12:42:36.032Z,71.93
2019-05-02T12:45:08.322Z,72.17
2019-05-02T12:47:37.717Z,70.23
2019-05-02T12:50:07.633Z,76.40
2019-05-02T12:52:40.219Z,75.27
2019-05-02T12:55:09.606Z,61.40
2019-05-02T12:57:38.967Z,65.50
2019-05-02T13:00:09.169Z,64.43
2019-05-02T13:02:58.972Z,60.83
2019-05-02T13:05:28.304Z,61.53
2019-05-02T13:07:57.715Z,67.40
2019-05-02T13:10:32.720Z,65.87
2019-05-02T13:13:02.798Z,67.37
2019-05-02T13:15:32.926Z,69.90
2019-05-02T13:18:05.593Z,75.03
2019-05-02T13:20:36.625Z,75.67
2019-05-02T13:23:27.453Z,79.07
2019-05-02T13:25:55.210Z,72.47
2019-05-02T13:28:25.723Z,68.07
2019-05-02T13:31:06.757Z,70.27
2019-05-02T13:33:37.855Z,66.87
2019-05-02T13:36:07.147Z,62.87
2019-05-02T13:38:39.247Z,47.53
2019-05-02T13:41:08.671Z,59.60
2019-05-02T13:43:41.795Z,46.57
2019-05-02T13:46:12.659Z,44.67
2019-05-02T13:48:42.851Z,50.47
2019-05-02T13:51:12.452Z,44.60
2019-05-02T13:53:43.459Z,44.30
2019-05-02T13:56:23.906Z,45.03
2019-05-02T13:58:53.209Z,43.27
2019-05-02T14:01:22.884Z,43.70
2019-05-02T14:03:55.538Z,39.17
2019-05-02T14:06:29.719Z,35.87
2019-05-02T14:08:56.035Z,37.80
2019-05-02T14:11:43.452Z,36.33
2019-05-02T14:14:13.039Z,33.73
2019-05-02T14:16:42.412Z,32.57
2019-05-02T14:19:12.587Z,27.83
2019-05-02T14:21:42.281Z,32.37
2019-05-02T14:24:11.903Z,29.77
2019-05-02T14:26:43.277Z,31.20
2019-05-02T14:29:16.122Z,25.77
2019-05-02T14:31:43.575Z,25.67
2019-05-02T14:34:33.037Z,28.47
2019-05-02T14:37:05.311Z,27.03
2019-05-02T14:39:34.747Z,24.83
2019-05-02T14:42:04.482Z,24.77
2019-05-02T14:45:01.305Z,22.87
2019-05-02T14:47:05.079Z,22.70
2019-05-02T14:49:34.447Z,22.37
2019-05-02T14:52:07.070Z,21.93
2019-05-02T14:54:38.013Z,21.83
2019-05-02T14:57:17.180Z,21.07
2019-05-02T14:59:44.572Z,22.70
2019-05-02T15:02:15.687Z,23.23
2019-05-02T15:04:48.757Z,18.60
2019-05-02T15:07:22.922Z,23.37
2019-05-02T15:09:50.063Z,19.53
2019-05-02T15:12:19.628Z,19.80
2019-05-02T15:14:49.239Z,20.67
2019-05-02T15:17:20.147Z,20.83
2019-05-02T15:19:52.500Z,21.90
2019-05-02T15:22:22.833Z,28.70
2019-05-02T15:24:53.973Z,22.30
2019-05-02T15:27:39.104Z,21.70
2019-05-02T15:30:05.223Z,26.10
2019-05-02T15:32:29.963Z,25.60
2019-05-02T15:35:17.607Z,34.23
2019-05-02T15:37:48.238Z,31.60
2019-05-02T15:42:52.225Z,32.47
2019-05-02T15:45:23.820Z,24.07
2019-05-02T15:47:53.090Z,27.17
2019-05-02T15:50:25.470Z,19.53
2019-05-02T15:52:57.379Z,14.80
2019-05-02T15:55:26.114Z,12.30
2019-05-02T15:57:55.422Z,13.03
2019-05-02T16:00:29.787Z,11.77
2019-05-02T16:03:01.569Z,15.87
2019-05-02T16:05:31.921Z,13.83
2019-05-02T16:08:07.822Z,15.83
2019-05-02T16:10:38.379Z,17.57
2019-05-02T16:13:08.566Z,19.30
2019-05-02T16:15:35.221Z,15.87
2019-05-02T16:18:05.329Z,16.83
2019-05-02T16:20:40.480Z,22.17
2019-05-02T16:23:07.537Z,21.90
2019-05-02T16:25:37.184Z,26.73
2019-05-02T16:28:09.279Z,28.07
2019-05-02T16:30:44.142Z,27.07
2019-05-02T16:33:17.351Z,29.20
2019-05-02T16:35:46.321Z,27.80
2019-05-02T16:38:14.372Z,32.93
2019-05-02T16:40:44.482Z,39.27
2019-05-02T16:43:16.322Z,33.47
2019-05-02T16:45:45.756Z,36.70
2019-05-02T16:48:15.160Z,42.67
2019-05-02T16:50:45.034Z,38.73
2019-05-02T16:53:17.133Z,33.80
2019-05-02T16:55:45.634Z,37.10
2019-05-02T16:58:15.056Z,36.70
2019-05-02T17:00:45.612Z,40.33
2019-05-02T17:03:17.269Z,46.10
2019-05-02T17:05:49.454Z,47.57
2019-05-02T17:08:20.190Z,43.17
2019-05-02T17:10:53.638Z,48.17
2019-05-02T17:13:27.391Z,43.60
2019-05-02T17:15:54.002Z,45.93
2019-05-02T17:18:23.480Z,50.77
2019-05-02T17:20:56.676Z,52.83
2019-05-02T17:23:24.744Z,50.47
2019-05-02T17:25:55.516Z,49.70
2019-05-02T17:28:24.824Z,49.53
2019-05-02T17:30:54.270Z,54.20
2019-05-02T17:33:23.606Z,53.93
2019-05-02T17:35:54.276Z,58.60
2019-05-02T17:38:29.059Z,53.50
2019-05-02T17:40:59.288Z,55.37
2019-05-02T17:43:27.794Z,60.67
2019-05-02T17:45:57.179Z,54.33
2019-05-02T17:48:29.416Z,58.33
2019-05-02T17:51:06.392Z,53.13
2019-05-02T17:53:41.483Z,55.23
2019-05-02T17:56:06.846Z,58.90
2019-05-02T17:58:36.214Z,56.57
2019-05-02T18:01:07.324Z,58.60
2019-05-02T18:03:36.643Z,61.20
2019-05-02T18:06:07.455Z,59.87
2019-05-02T18:08:37.096Z,59.63
2019-05-02T18:11:06.390Z,55.03
2019-05-02T18:13:35.690Z,54.73
2019-05-02T18:16:07.673Z,55.70
2019-05-02T18:18:37.623Z,55.70
2019-05-02T18:21:07.206Z,52.43
2019-05-02T18:23:39.653Z,54.43
2019-05-02T18:26:09.030Z,51.17
2019-05-02T18:28:46.926Z,50.43
2019-05-02T18:31:12.205Z,49.20
2019-05-02T18:33:42.543Z,52.33
2019-05-02T18:36:17.484Z,51.37
2019-05-02T18:38:46.627Z,44.80
2019-05-02T18:41:15.936Z,43.33
2019-05-02T18:43:47.864Z,52.40
2019-05-02T18:46:19.736Z,50.47
2019-05-02T18:48:49.255Z,43.47
2019-05-02T18:51:19.166Z,46.07
2019-05-02T18:53:48.515Z,42.97
2019-05-02T18:56:22.208Z,42.90
2019-05-02T18:58:54.562Z,36.83
2019-05-02T19:01:24.024Z,40.30
2019-05-02T19:03:56.408Z,42.40
2019-05-02T19:06:27.923Z,34.50
2019-05-02T19:09:02.009Z,29.83
2019-05-02T19:11:33.750Z,31.17
2019-05-02T19:14:04.942Z,29.67
2019-05-02T19:16:34.554Z,33.53
2019-05-02T19:19:04.020Z,29.83
2019-05-02T19:21:37.830Z,28.17
2019-05-02T19:24:06.907Z,27.73
2019-05-02T19:26:36.269Z,23.00
2019-05-02T19:29:15.644Z,24.33
2019-05-02T19:31:46.092Z,22.37
2019-05-02T19:34:16.722Z,21.70
2019-05-02T19:36:46.443Z,20.50
2019-05-02T19:39:17.342Z,22.77
2019-05-02T19:41:49.371Z,21.07
2019-05-02T19:44:21.438Z,20.93
2019-05-02T19:46:51.816Z,21.70
2019-05-02T19:49:22.418Z,21.00
2019-05-02T19:51:56.333Z,20.60
2019-05-02T19:54:22.821Z,24.87
2019-05-02T19:56:52.507Z,22.70
2019-05-02T19:59:26.350Z,26.70
2019-05-02T20:01:57.038Z,26.13
2019-05-02T20:04:23.898Z,23.93
2019-05-02T20:06:53.316Z,26.03
2019-05-02T20:09:25.247Z,25.80
2019-05-02T20:11:54.550Z,25.33
2019-05-02T20:14:26.778Z,27.13
2019-05-02T20:16:58.698Z,30.13
2019-05-02T20:19:28.647Z,29.20
2019-05-02T20:22:06.393Z,27.73
2019-05-02T20:24:55.346Z,28.37
2019-05-02T20:27:22.568Z,31.53
2019-05-02T20:29:52.229Z,30.90
2019-05-02T20:32:22.070Z,32.63
2019-05-02T20:34:51.602Z,27.27
2019-05-02T20:37:22.074Z,24.30
2019-05-02T20:39:51.604Z,28.33
2019-05-02T20:42:21.001Z,24.63
2019-05-02T20:44:50.472Z,26.30
2019-05-02T20:47:23.151Z,27.00
2019-05-02T20:49:55.060Z,26.57
2019-05-02T20:52:24.536Z,31.73
2019-05-02T20:54:53.941Z,29.07
2019-05-02T20:57:26.319Z,35.30
2019-05-02T20:59:55.713Z,27.80
2019-05-02T21:02:25.141Z,26.70
2019-05-02T21:04:54.563Z,31.43
2019-05-02T21:07:25.608Z,27.47
2019-05-02T21:10:04.000Z,25.57
2019-05-02T21:12:35.203Z,25.17
2019-05-02T21:15:06.107Z,23.47
2019-05-02T21:17:35.568Z,23.10
2019-05-02T21:20:08.390Z,24.77
2019-05-02T21:22:37.769Z,22.10
2019-05-02T21:25:07.759Z,22.33
2019-05-02T21:27:37.157Z,23.47
2019-05-02T21:30:12.342Z,24.63
2019-05-02T21:32:42.854Z,26.27
2019-05-02T21:35:12.635Z,22.57
2019-05-02T21:37:42.457Z,26.57
2019-05-02T21:40:12.084Z,26.43
2019-05-02T21:42:42.494Z,29.37
2019-05-02T21:45:13.236Z,28.07
2019-05-02T21:47:42.879Z,27.17
2019-05-02T21:50:24.395Z,32.77
2019-05-02T21:53:07.351Z,31.87
2019-05-02T21:55:38.399Z,36.03
2019-05-02T21:58:07.881Z,30.90
2019-05-02T22:00:45.754Z,29.93
2019-05-02T22:03:15.715Z,32.10
2019-05-02T22:05:45.215Z,29.97
2019-05-02T22:08:14.607Z,34.70
2019-05-02T22:10:44.079Z,29.43
2019-05-02T22:13:13.649Z,35.43
2019-05-02T22:15:43.039Z,30.83
2019-05-02T22:18:12.447Z,33.67
2019-05-02T22:20:42.800Z,32.80
2019-05-02T22:23:12.244Z,35.67
2019-05-02T22:25:41.975Z,33.67
2019-05-02T22:28:13.051Z,31.03
2019-05-02T22:30:42.933Z,32.57
2019-05-02T22:33:12.409Z,33.33
2019-05-02T22:35:43.382Z,38.03
2019-05-02T22:38:14.506Z,31.07
2019-05-02T22:40:45.544Z,37.13
2019-05-02T22:43:14.941Z,35.93
2019-05-02T22:45:44.344Z,34.30
2019-05-02T22:48:14.323Z,36.73
2019-05-02T22:50:43.738Z,38.93
2019-05-02T22:53:13.997Z,38.83
2019-05-02T22:55:43.538Z,39.03
2019-05-02T22:58:12.945Z,36.83
2019-05-02T23:00:42.367Z,37.13
2019-05-02T23:03:12.562Z,36.20
2019-05-02T23:05:42.221Z,36.57
2019-05-02T23:08:12.567Z,33.00
2019-05-02T23:10:41.975Z,41.30
2019-05-02T23:13:12.987Z,33.83
2019-05-02T23:15:42.717Z,33.33
2019-05-02T23:18:12.269Z,34.97
2019-05-02T23:20:42.192Z,36.60
2019-05-02T23:23:12.486Z,34.53
2019-05-02T23:26:04.441Z,34.30
2019-05-02T23:28:35.477Z,30.93
2019-05-02T23:31:05.029Z,37.70
2019-05-02T23:33:52.303Z,33.10
2019-05-02T23:36:21.777Z,31.43
2019-05-02T23:38:52.228Z,30.47
2019-05-02T23:41:22.098Z,30.33
2019-05-02T23:43:52.425Z,30.80
2019-05-02T23:46:22.573Z,31.13
2019-05-02T23:48:52.635Z,32.47
2019-05-02T23:51:22.634Z,34.17
2019-05-02T23:53:52.780Z,33.33
2019-05-02T23:56:22.367Z,28.97
2019-05-02T23:58:52.087Z,33.63
